Pagrindinis puslapis
METAR-TAF:

METAR-TAF

Oro uostai :

Batajnica, Serbija

platuma: 44-56-07N, ilguma: 020-15-27E, Aukštis: 86 m

Dabartinis oras

Ataskaita buvo paskelbta 22 minutes, ne 02:30 UTC
Vėjas 1 kt nuo kintamojo kryptimis
Temperatūra -3°C
Drėgmė 100%
Slėgis 1026 hPa
Matomumas: 0300 m
įšaldymas rūko

METAR: LYBT 180230Z VRB01KT 0300 R12/0350N R30/0275N FZFG VV001 M03/M03 Q1026 NOSIG

Laikas: 03:52 (02:52 UTC)

Prognozė

Ataskaita buvo paskelbta 3 valandos ir 52 minutes, ne 23:00 UTC
Prognozė galioja nuo 18 metu 00 UTC su 18 metu 24 UTC
Vėjas 2 kt nuo kintamojo kryptimis
Matomumas: 0300 m
ne aukštis 200 ft
įšaldymas rūko
Tapsmas
nuo 18 metu 05 UTC su 18 metu 07 UTC
Vėjas 10 kt iš Rytų/Pietryčių
Matomumas: 6000 m

TAF: LYBT 172300Z 1800/1824 VRB02KT 0300 FZFG VV002 TX05/1813Z TNM03/1805Z BECMG 1805/1807 12010KT 6000 NSW NSC

Orai ataskaitas ir orų prognozės (METAR, TAF).

turimą stotys yra geltonos ir raudonos taškus žemėlapyje.

Perkelti pele per norėdami pamatyti stoties vardą.

Tada spustelėkite, norėdami matyti oro stebėjimo ir prognozės.

Norėdami pakeisti žemėlapį: spustelėkite ant žalios mygtukų su juodo kryžiaus žemyn,; žalią mygtuką su brūkšneliu, jei norite nutolinti; arba žalių rodyklių gretimoms žemėlapius.


METAR-TAF: